createdAt,value
2022-12-18T00:00:05.159Z,37.00
2022-12-18T00:03:01.667Z,35.90
2022-12-18T00:05:29.816Z,37.00
2022-12-18T00:07:57.558Z,33.50
2022-12-18T00:10:25.425Z,34.90
2022-12-18T00:12:53.230Z,33.10
2022-12-18T00:15:21.199Z,39.90
2022-12-18T00:17:48.974Z,42.60
2022-12-18T00:20:21.783Z,38.70
2022-12-18T00:22:49.600Z,38.60
2022-12-18T00:25:17.267Z,39.50
2022-12-18T00:27:45.238Z,36.50
2022-12-18T00:30:13.789Z,35.60
2022-12-18T00:32:41.722Z,38.40
2022-12-18T00:35:09.849Z,38.30
2022-12-18T00:37:37.939Z,37.10
2022-12-18T00:40:08.680Z,38.00
2022-12-18T00:42:55.630Z,42.50
2022-12-18T00:45:24.966Z,34.10
2022-12-18T00:50:22.060Z,36.30
2022-12-18T00:52:49.930Z,35.90
2022-12-18T00:55:18.293Z,34.10
2022-12-18T00:57:48.344Z,40.60
2022-12-18T01:03:17.944Z,34.80
2022-12-18T01:05:49.788Z,36.30
2022-12-18T01:08:27.779Z,33.30
2022-12-18T01:11:03.360Z,38.60
2022-12-18T01:13:35.584Z,33.20
2022-12-18T01:16:09.090Z,35.70
2022-12-18T01:18:43.768Z,28.10
2022-12-18T01:21:15.481Z,30.20
2022-12-18T01:23:45.290Z,30.80
2022-12-18T01:26:18.511Z,30.80
2022-12-18T01:28:52.666Z,35.50
2022-12-18T01:31:31.556Z,34.90
2022-12-18T01:34:07.488Z,35.30
2022-12-18T01:36:40.689Z,33.70
2022-12-18T01:39:13.585Z,38.10
2022-12-18T01:42:02.667Z,31.90
2022-12-18T01:45:10.821Z,31.30
2022-12-18T01:47:46.271Z,33.70
2022-12-18T01:50:18.091Z,31.10
2022-12-18T01:52:52.076Z,34.30
2022-12-18T01:55:23.538Z,32.50
2022-12-18T01:57:54.907Z,34.00
2022-12-18T02:00:24.736Z,34.50
2022-12-18T02:02:54.395Z,33.50
2022-12-18T02:08:40.076Z,37.10
2022-12-18T02:11:16.732Z,35.50
2022-12-18T02:14:03.954Z,37.70
2022-12-18T02:16:50.636Z,26.50
2022-12-18T02:19:40.054Z,26.50
2022-12-18T02:22:43.975Z,29.50
2022-12-18T02:25:54.741Z,33.30
2022-12-18T02:28:27.363Z,30.70
2022-12-18T02:30:59.721Z,29.10
2022-12-18T02:33:32.073Z,30.70
2022-12-18T02:36:01.817Z,28.80
2022-12-18T02:38:32.270Z,30.40
2022-12-18T02:41:07.231Z,31.10
2022-12-18T02:43:35.156Z,31.90
2022-12-18T02:46:29.594Z,27.30
2022-12-18T02:49:07.804Z,29.90
2022-12-18T02:51:58.275Z,28.30
2022-12-18T02:54:45.396Z,27.60
2022-12-18T02:57:25.841Z,30.90
2022-12-18T03:00:04.046Z,31.60
2022-12-18T03:03:02.074Z,28.50
2022-12-18T03:05:44.385Z,27.50
2022-12-18T03:08:22.006Z,28.40
2022-12-18T03:11:01.640Z,28.80
2022-12-18T03:13:38.719Z,28.80
2022-12-18T03:16:11.881Z,31.40
2022-12-18T03:18:47.581Z,34.20
2022-12-18T03:21:19.697Z,33.00
2022-12-18T03:23:50.874Z,33.90
2022-12-18T03:26:23.584Z,27.90
2022-12-18T03:28:58.803Z,31.30
2022-12-18T03:31:31.159Z,31.30
2022-12-18T03:34:02.373Z,31.60
2022-12-18T03:36:37.405Z,35.70
2022-12-18T03:39:06.016Z,31.00
2022-12-18T03:41:52.687Z,33.30
2022-12-18T03:44:46.111Z,35.80
2022-12-18T03:47:27.072Z,34.20
2022-12-18T03:49:59.626Z,30.50
2022-12-18T03:52:36.333Z,30.60
2022-12-18T03:55:08.086Z,30.90
2022-12-18T03:57:37.120Z,33.30
2022-12-18T04:00:10.561Z,33.10
2022-12-18T04:03:03.580Z,31.90
2022-12-18T04:05:38.304Z,37.10
2022-12-18T04:08:08.637Z,35.70
2022-12-18T04:10:39.600Z,30.20
2022-12-18T04:13:07.663Z,34.30
2022-12-18T04:15:38.197Z,31.20
2022-12-18T04:18:07.362Z,32.40
2022-12-18T04:20:40.612Z,30.70
2022-12-18T04:23:09.471Z,27.80
2022-12-18T04:25:38.321Z,31.30
2022-12-18T04:28:09.348Z,31.70
2022-12-18T04:30:37.991Z,29.60
2022-12-18T04:33:14.280Z,31.30
2022-12-18T04:35:43.160Z,30.10
2022-12-18T04:38:11.517Z,33.20
2022-12-18T04:40:40.021Z,30.00
2022-12-18T04:43:15.421Z,42.90
2022-12-18T04:45:43.270Z,33.80
2022-12-18T04:48:11.259Z,36.30
2022-12-18T04:50:39.785Z,32.80
2022-12-18T04:53:08.723Z,31.90
2022-12-18T04:55:37.749Z,35.20
2022-12-18T04:58:05.894Z,29.50
2022-12-18T05:00:33.690Z,29.20
2022-12-18T05:03:03.364Z,33.80
2022-12-18T05:05:31.825Z,31.50
2022-12-18T05:07:59.600Z,29.90
2022-12-18T05:10:27.809Z,35.70
2022-12-18T05:13:00.088Z,31.70
2022-12-18T05:15:31.257Z,33.70
2022-12-18T05:18:00.105Z,32.60
2022-12-18T05:20:29.313Z,29.20
2022-12-18T05:22:57.569Z,26.60
2022-12-18T05:25:25.914Z,33.20
2022-12-18T05:27:53.705Z,31.80
2022-12-18T05:30:21.490Z,28.40
2022-12-18T05:32:49.551Z,26.50
2022-12-18T05:35:17.531Z,29.70
2022-12-18T05:37:45.339Z,25.70
2022-12-18T05:40:13.891Z,30.00
2022-12-18T05:42:41.845Z,28.90
2022-12-18T05:45:10.183Z,31.70
2022-12-18T05:47:38.440Z,30.10
2022-12-18T05:50:07.920Z,33.50
2022-12-18T05:55:03.968Z,30.50
2022-12-18T05:57:31.904Z,35.20
2022-12-18T05:59:59.744Z,32.90
2022-12-18T06:02:28.217Z,36.70
2022-12-18T06:04:56.201Z,32.80
2022-12-18T06:07:24.394Z,37.40
2022-12-18T06:09:52.435Z,37.80
2022-12-18T06:12:22.154Z,36.40
2022-12-18T06:14:50.295Z,38.80
2022-12-18T06:17:18.223Z,39.50
2022-12-18T06:19:46.184Z,39.50
2022-12-18T06:22:13.983Z,39.20
2022-12-18T06:24:42.369Z,40.80
2022-12-18T06:27:11.308Z,37.50
2022-12-18T06:29:39.693Z,40.90
2022-12-18T06:32:07.737Z,37.60
2022-12-18T06:34:40.249Z,40.50
2022-12-18T06:37:08.257Z,37.80
2022-12-18T06:39:36.243Z,40.90
2022-12-18T06:42:04.552Z,47.70
2022-12-18T06:44:32.508Z,44.80
2022-12-18T06:47:00.575Z,42.70
2022-12-18T06:49:30.578Z,42.20
2022-12-18T06:51:58.695Z,43.50
2022-12-18T06:54:26.692Z,44.50
2022-12-18T06:56:54.991Z,42.00
2022-12-18T06:59:22.725Z,38.40
2022-12-18T07:01:50.822Z,39.90
2022-12-18T07:04:18.779Z,40.90
2022-12-18T07:06:46.650Z,40.80
2022-12-18T07:09:14.956Z,41.80
2022-12-18T07:11:43.074Z,40.80
2022-12-18T07:14:11.223Z,33.00
2022-12-18T07:16:39.382Z,37.80
2022-12-18T07:19:07.414Z,41.00
2022-12-18T07:21:35.464Z,37.10
2022-12-18T07:24:04.330Z,41.90
2022-12-18T07:26:32.346Z,37.10
2022-12-18T07:29:00.210Z,36.80
2022-12-18T07:31:28.629Z,34.90
2022-12-18T07:33:56.712Z,31.50
2022-12-18T07:36:26.225Z,36.90
2022-12-18T07:38:54.359Z,31.80
2022-12-18T07:41:22.336Z,32.40
2022-12-18T07:43:50.158Z,34.00
2022-12-18T07:46:19.395Z,31.20
2022-12-18T07:48:49.748Z,33.50
2022-12-18T07:51:19.549Z,34.00
2022-12-18T07:53:49.392Z,28.20
2022-12-18T07:56:27.706Z,34.70
2022-12-18T07:58:56.438Z,35.60
2022-12-18T08:01:25.406Z,35.00
2022-12-18T08:03:53.849Z,42.00
2022-12-18T08:06:24.009Z,36.70
2022-12-18T08:08:56.386Z,34.00
2022-12-18T08:11:27.263Z,38.10
2022-12-18T08:13:55.814Z,37.40
2022-12-18T08:16:23.846Z,34.70
2022-12-18T08:18:53.848Z,34.10
2022-12-18T08:21:27.593Z,33.40
2022-12-18T08:23:57.912Z,35.30
2022-12-18T08:26:28.621Z,38.80
2022-12-18T08:28:57.879Z,40.10
2022-12-18T08:31:27.433Z,34.40
2022-12-18T08:33:56.398Z,39.50
2022-12-18T08:38:54.194Z,34.90
2022-12-18T08:41:22.563Z,34.60
2022-12-18T08:44:09.635Z,32.50
2022-12-18T08:46:41.131Z,32.40
2022-12-18T08:49:11.136Z,33.40
2022-12-18T08:51:40.141Z,36.20
2022-12-18T08:54:11.902Z,35.20
2022-12-18T08:56:39.664Z,32.40
2022-12-18T08:59:07.521Z,34.10
2022-12-18T09:01:35.611Z,32.70
2022-12-18T09:04:04.042Z,34.80
2022-12-18T09:06:32.621Z,33.20
2022-12-18T09:09:00.617Z,33.10
2022-12-18T09:11:29.608Z,34.30
2022-12-18T09:13:58.393Z,29.50
2022-12-18T09:16:31.677Z,35.80
2022-12-18T09:19:00.931Z,38.50
2022-12-18T09:21:33.936Z,36.30
2022-12-18T09:24:08.697Z,37.90
2022-12-18T09:26:37.695Z,33.80
2022-12-18T09:29:05.868Z,37.80
2022-12-18T09:31:34.989Z,35.10
2022-12-18T09:34:02.836Z,35.80
2022-12-18T09:36:31.661Z,35.60
2022-12-18T09:39:02.630Z,47.80
2022-12-18T09:41:43.253Z,42.80
2022-12-18T09:44:26.234Z,36.20
2022-12-18T09:47:10.702Z,39.40
2022-12-18T09:49:43.944Z,40.40
2022-12-18T09:52:23.278Z,38.30
2022-12-18T09:54:59.235Z,39.40
2022-12-18T09:57:27.803Z,38.40
2022-12-18T10:00:08.152Z,40.70
2022-12-18T10:02:39.722Z,36.30
2022-12-18T10:05:15.350Z,43.20
2022-12-18T10:07:59.290Z,39.20
2022-12-18T10:10:44.443Z,40.30
2022-12-18T10:13:20.819Z,38.50
2022-12-18T10:16:04.480Z,37.20
2022-12-18T10:18:39.118Z,45.70
2022-12-18T10:21:22.758Z,38.40
2022-12-18T10:24:30.490Z,36.20
2022-12-18T10:27:13.506Z,37.30
2022-12-18T10:29:44.229Z,34.10
2022-12-18T10:32:25.912Z,69.20
2022-12-18T10:35:00.181Z,42.40
2022-12-18T10:37:30.713Z,41.00
2022-12-18T10:40:20.167Z,41.70
2022-12-18T10:43:13.735Z,43.00
2022-12-18T10:45:42.950Z,41.40
2022-12-18T10:53:42.521Z,43.10
2022-12-18T10:56:10.863Z,41.10
2022-12-18T10:58:40.924Z,41.10
2022-12-18T11:01:18.641Z,42.90
2022-12-18T11:04:02.421Z,45.10
2022-12-18T11:06:31.464Z,42.00
2022-12-18T11:09:13.216Z,42.40
2022-12-18T11:11:50.483Z,45.70
2022-12-18T11:14:24.160Z,47.70
2022-12-18T11:19:42.427Z,50.70
2022-12-18T11:22:29.063Z,46.70
2022-12-18T11:25:35.013Z,43.10
2022-12-18T11:28:07.034Z,44.40
2022-12-18T11:30:39.234Z,38.50
2022-12-18T11:33:15.907Z,37.90
2022-12-18T11:35:59.603Z,35.10
2022-12-18T11:38:38.679Z,33.30
2022-12-18T11:41:15.578Z,31.30
2022-12-18T11:43:49.030Z,31.80
2022-12-18T11:46:33.454Z,37.90
2022-12-18T11:49:23.727Z,33.00
2022-12-18T11:52:00.075Z,34.30
2022-12-18T11:54:28.575Z,35.60
2022-12-18T11:56:59.029Z,39.30
2022-12-18T11:59:59.851Z,34.10
2022-12-18T12:02:27.954Z,32.90
2022-12-18T12:05:05.039Z,39.10
2022-12-18T12:07:53.455Z,38.00
2022-12-18T12:10:54.438Z,41.10
2022-12-18T12:13:30.677Z,38.80
2022-12-18T12:16:09.807Z,44.30
2022-12-18T12:19:08.818Z,45.70
2022-12-18T12:21:50.092Z,40.40
2022-12-18T12:24:36.627Z,40.10
2022-12-18T12:27:23.166Z,46.30
2022-12-18T12:30:12.960Z,47.60
2022-12-18T12:33:16.936Z,41.50
2022-12-18T12:36:03.512Z,44.50
2022-12-18T12:38:51.842Z,43.10
2022-12-18T12:41:49.340Z,44.80
2022-12-18T12:44:26.986Z,49.00
2022-12-18T12:47:00.213Z,43.30
2022-12-18T12:49:32.254Z,43.40
2022-12-18T12:52:31.924Z,43.70
2022-12-18T12:55:01.732Z,44.60
2022-12-18T12:57:38.146Z,51.60
2022-12-18T13:00:20.630Z,50.10
2022-12-18T13:03:10.549Z,49.70
2022-12-18T13:05:50.016Z,46.90
2022-12-18T13:08:33.263Z,48.40
2022-12-18T13:11:21.606Z,48.80
2022-12-18T13:13:55.337Z,49.30
2022-12-18T13:16:26.382Z,52.40
2022-12-18T13:18:57.921Z,51.70
2022-12-18T13:21:30.080Z,45.00
2022-12-18T13:24:16.494Z,49.50
2022-12-18T13:26:44.485Z,51.70
2022-12-18T13:29:12.524Z,49.50
2022-12-18T13:31:40.600Z,49.80
2022-12-18T13:34:26.812Z,46.60
2022-12-18T13:37:17.802Z,53.60
2022-12-18T13:39:45.990Z,45.10
2022-12-18T13:42:34.264Z,44.70
2022-12-18T13:45:02.521Z,51.60
2022-12-18T13:47:38.493Z,52.80
2022-12-18T13:50:28.577Z,43.20
2022-12-18T13:53:00.460Z,47.70
2022-12-18T13:55:28.596Z,51.60
2022-12-18T13:58:07.519Z,51.00
2022-12-18T14:00:35.918Z,48.50
2022-12-18T14:03:21.791Z,54.30
2022-12-18T14:05:58.495Z,50.80
2022-12-18T14:08:32.306Z,48.40
2022-12-18T14:11:02.336Z,54.20
2022-12-18T14:13:35.221Z,47.30
2022-12-18T14:16:06.129Z,49.60
2022-12-18T14:18:44.956Z,54.90
2022-12-18T14:21:21.065Z,55.70
2022-12-18T14:23:49.294Z,52.00
2022-12-18T14:26:30.624Z,49.00
2022-12-18T14:29:04.651Z,59.50
2022-12-18T14:31:32.955Z,53.60
2022-12-18T14:34:01.119Z,52.80
2022-12-18T14:36:30.443Z,53.40
2022-12-18T14:41:28.802Z,49.90
2022-12-18T14:46:34.125Z,50.00
2022-12-18T14:49:05.512Z,55.00
2022-12-18T14:51:35.762Z,51.40
2022-12-18T14:54:17.559Z,54.50
2022-12-18T14:56:48.410Z,52.30
2022-12-18T14:59:24.665Z,55.70
2022-12-18T15:01:59.303Z,55.80
2022-12-18T15:04:30.447Z,61.10
2022-12-18T15:07:05.101Z,53.20
2022-12-18T15:09:33.515Z,52.10
2022-12-18T15:12:02.759Z,54.30
2022-12-18T15:14:33.531Z,54.10
2022-12-18T15:17:03.311Z,59.60
2022-12-18T15:19:34.369Z,56.10
2022-12-18T15:22:06.397Z,65.10
2022-12-18T15:24:34.994Z,67.40
2022-12-18T15:27:03.016Z,68.70
2022-12-18T15:29:31.062Z,63.20
2022-12-18T15:32:04.284Z,60.30
2022-12-18T15:34:35.083Z,66.20
2022-12-18T15:37:03.536Z,61.70
2022-12-18T15:39:31.358Z,57.40
2022-12-18T15:42:17.922Z,58.70
2022-12-18T15:44:46.140Z,52.50
2022-12-18T15:47:14.237Z,51.50
2022-12-18T15:49:42.325Z,51.00
2022-12-18T15:52:14.623Z,51.20
2022-12-18T15:55:01.246Z,52.10
2022-12-18T15:57:29.771Z,60.10
2022-12-18T15:59:59.201Z,51.80
2022-12-18T16:04:57.718Z,63.50
2022-12-18T16:07:28.103Z,61.20
2022-12-18T16:10:02.328Z,58.50
2022-12-18T16:12:30.661Z,63.00
2022-12-18T16:14:59.880Z,56.60
2022-12-18T16:17:27.732Z,61.10
2022-12-18T16:19:56.505Z,63.00
2022-12-18T16:22:27.616Z,69.20
2022-12-18T16:24:56.866Z,66.90
2022-12-18T16:27:26.938Z,61.00
2022-12-18T16:29:54.887Z,60.40
2022-12-18T16:32:23.292Z,68.70
2022-12-18T16:34:52.021Z,80.60
2022-12-18T16:37:20.177Z,85.60
2022-12-18T16:39:49.424Z,76.90
2022-12-18T16:42:20.281Z,77.20
2022-12-18T16:44:50.063Z,70.60
2022-12-18T16:47:19.198Z,72.20
2022-12-18T16:49:47.213Z,65.60
2022-12-18T16:52:15.599Z,73.00
2022-12-18T16:54:44.050Z,58.40
2022-12-18T16:57:14.760Z,68.60
2022-12-18T16:59:43.164Z,67.80
2022-12-18T17:02:17.196Z,69.40
2022-12-18T17:04:47.702Z,69.20
2022-12-18T17:07:16.311Z,73.60
2022-12-18T17:09:44.210Z,87.10
2022-12-18T17:12:12.214Z,83.50
2022-12-18T17:14:40.331Z,76.60
2022-12-18T17:17:20.988Z,71.90
2022-12-18T17:19:51.331Z,68.50
2022-12-18T17:22:20.084Z,72.40
2022-12-18T17:24:48.417Z,71.20
2022-12-18T17:27:19.215Z,75.00
2022-12-18T17:29:48.676Z,77.00
2022-12-18T17:32:18.022Z,68.60
2022-12-18T17:34:46.479Z,72.80
2022-12-18T17:37:14.577Z,73.80
2022-12-18T17:39:42.652Z,76.90
2022-12-18T17:42:11.503Z,78.60
2022-12-18T17:44:45.120Z,75.90
2022-12-18T17:47:14.046Z,86.30
2022-12-18T17:49:42.019Z,88.40
2022-12-18T17:52:10.645Z,71.90
2022-12-18T17:54:41.508Z,78.60
2022-12-18T17:57:09.434Z,73.60
2022-12-18T17:59:37.336Z,75.50
2022-12-18T18:02:05.800Z,69.00
2022-12-18T18:04:34.281Z,70.20
2022-12-18T18:07:03.236Z,74.60
2022-12-18T18:09:32.500Z,65.00
2022-12-18T18:12:20.264Z,69.00
2022-12-18T18:14:48.381Z,72.20
2022-12-18T18:17:16.111Z,77.70
2022-12-18T18:19:49.511Z,70.40
2022-12-18T18:22:19.001Z,69.00
2022-12-18T18:24:47.177Z,62.10
2022-12-18T18:27:15.167Z,69.50
2022-12-18T18:29:43.617Z,75.40
2022-12-18T18:32:11.471Z,65.90
2022-12-18T18:34:40.454Z,70.50
2022-12-18T18:37:10.439Z,72.10
2022-12-18T18:39:38.294Z,76.30
2022-12-18T18:42:06.658Z,65.10
2022-12-18T18:44:35.262Z,75.80
2022-12-18T18:47:03.589Z,79.90
2022-12-18T18:49:34.181Z,83.80
2022-12-18T18:52:02.853Z,76.80
2022-12-18T18:54:31.155Z,78.90
2022-12-18T18:59:46.874Z,85.70
2022-12-18T19:02:16.443Z,83.30
2022-12-18T19:04:45.843Z,74.80
2022-12-18T19:07:23.863Z,73.20
2022-12-18T19:10:02.071Z,77.40
2022-12-18T19:12:53.125Z,83.40
2022-12-18T19:15:21.741Z,77.60
2022-12-18T19:17:49.855Z,85.10
2022-12-18T19:20:18.446Z,79.00
2022-12-18T19:22:48.596Z,77.20
2022-12-18T19:25:38.487Z,75.60
2022-12-18T19:28:12.052Z,85.00
2022-12-18T19:30:52.457Z,69.40
2022-12-18T19:33:45.728Z,73.00
2022-12-18T19:36:25.214Z,75.70
2022-12-18T19:43:52.875Z,72.00
2022-12-18T19:46:23.304Z,69.90
2022-12-18T19:48:51.944Z,72.90
2022-12-18T19:51:22.898Z,85.00
2022-12-18T19:53:58.423Z,81.90
2022-12-18T19:56:31.026Z,77.70
2022-12-18T19:58:59.730Z,81.30
2022-12-18T20:01:28.937Z,81.90
2022-12-18T20:03:59.755Z,81.60
2022-12-18T20:06:32.995Z,76.10
2022-12-18T20:09:06.455Z,84.00
2022-12-18T20:11:39.663Z,81.80
2022-12-18T20:14:16.876Z,87.60
2022-12-18T20:16:53.024Z,86.80
2022-12-18T20:19:21.903Z,84.40
2022-12-18T20:21:49.806Z,90.00
2022-12-18T20:24:17.756Z,79.60
2022-12-18T20:26:46.103Z,83.80
2022-12-18T20:29:14.236Z,82.80
2022-12-18T20:31:42.251Z,77.40
2022-12-18T20:34:10.371Z,81.50
2022-12-18T20:36:38.821Z,86.90
2022-12-18T20:39:09.858Z,85.00
2022-12-18T20:41:39.900Z,85.50
2022-12-18T20:44:23.020Z,95.40
2022-12-18T20:46:57.468Z,92.50
2022-12-18T20:49:26.685Z,82.80
2022-12-18T20:51:56.868Z,85.70
2022-12-18T20:54:26.857Z,89.10
2022-12-18T20:56:55.762Z,88.70
2022-12-18T20:59:25.548Z,81.10
2022-12-18T21:01:54.024Z,90.20
2022-12-18T21:04:22.497Z,84.50
2022-12-18T21:06:55.858Z,84.90
2022-12-18T21:09:37.841Z,83.40
2022-12-18T21:12:35.028Z,85.00
2022-12-18T21:15:11.230Z,81.40
2022-12-18T21:17:41.719Z,95.20
2022-12-18T21:20:18.086Z,96.00
2022-12-18T21:22:47.295Z,104.80
2022-12-18T21:25:15.710Z,85.80
2022-12-18T21:27:44.141Z,91.40
2022-12-18T21:30:15.028Z,93.90
2022-12-18T21:32:43.137Z,85.30
2022-12-18T21:35:11.420Z,101.10
2022-12-18T21:37:40.462Z,92.90
2022-12-18T21:40:09.338Z,76.00
2022-12-18T21:42:55.945Z,73.60
2022-12-18T21:45:24.063Z,70.70
2022-12-18T21:47:52.329Z,74.50
2022-12-18T21:50:20.437Z,79.20
2022-12-18T21:52:49.351Z,84.80
2022-12-18T21:55:17.266Z,71.30
2022-12-18T21:57:45.124Z,83.50
2022-12-18T22:00:18.452Z,85.00
2022-12-18T22:02:59.910Z,79.40
2022-12-18T22:08:06.908Z,72.70
2022-12-18T22:10:35.853Z,78.80
2022-12-18T22:13:06.008Z,78.40
2022-12-18T22:15:33.979Z,81.40
2022-12-18T22:18:02.064Z,86.00
2022-12-18T22:20:30.748Z,70.20
2022-12-18T22:23:02.613Z,81.40
2022-12-18T22:25:35.483Z,84.10
2022-12-18T22:28:26.069Z,80.60
2022-12-18T22:30:59.012Z,73.50
2022-12-18T22:33:28.435Z,71.90
2022-12-18T22:35:57.234Z,75.10
2022-12-18T22:38:25.174Z,81.40
2022-12-18T22:40:54.486Z,74.50
2022-12-18T22:43:22.765Z,77.50
2022-12-18T22:45:50.778Z,68.70
2022-12-18T22:48:18.521Z,76.70
2022-12-18T22:50:47.218Z,72.90
2022-12-18T22:53:16.912Z,79.70
2022-12-18T22:55:44.670Z,76.50
2022-12-18T22:58:12.777Z,82.30
2022-12-18T23:00:41.080Z,81.20
2022-12-18T23:03:09.784Z,79.10
2022-12-18T23:05:38.427Z,79.40
2022-12-18T23:08:06.269Z,82.00
2022-12-18T23:10:38.849Z,85.20
2022-12-18T23:13:07.250Z,76.40
2022-12-18T23:15:35.289Z,83.30
2022-12-18T23:18:03.749Z,88.40
2022-12-18T23:20:32.237Z,84.70
2022-12-18T23:23:00.030Z,77.20
2022-12-18T23:25:28.055Z,90.40
2022-12-18T23:27:56.890Z,88.90
2022-12-18T23:30:24.898Z,83.30
2022-12-18T23:32:53.361Z,97.60
2022-12-18T23:35:21.988Z,71.80
2022-12-18T23:37:59.451Z,90.50
2022-12-18T23:40:29.651Z,100.40
2022-12-18T23:43:00.220Z,98.80
2022-12-18T23:45:28.852Z,84.80
2022-12-18T23:47:57.135Z,86.70
2022-12-18T23:50:29.259Z,108.40
2022-12-18T23:53:05.332Z,90.70
2022-12-18T23:55:39.533Z,100.00
2022-12-18T23:58:14.962Z,92.70
